Jorma Tyyskä

EHAM ILS 18R ei toimi ( Ratkaistu )

9 viestiä aiheessa

taajuus 110.1 

 

5 rata, NL2000+SP1 ja 2 ja joku "shiphol_working_ils.bgl" scenen scenery-kansiossa asennettu...

36L ei kai ole ilssiä...

 

Vinkkejä? kiitos

Jaa viesti


Link to post
Jaa muulla sivustolla

ILS aktivoituu kun laittaa NAV/GPS moodin NAV:lle. Itselläni oli myös joskus tuo ongelma.

Jaa viesti


Link to post
Jaa muulla sivustolla

ILS aktivoituu kun laittaa NAV/GPS moodin NAV:lle. Itselläni oli myös joskus tuo ongelma.

Ei taida tässä tapauksessa olla ihan siitä kyse...  :)

Jaa viesti


Link to post
Jaa muulla sivustolla

Joo, eipä ole kun muut kuitenkin toimii...  noh, ainahan voi pyytää 18C :-)...

 

Mulla on muuten sama ongelma myös ESSA 19L/01R ja freeware-scenery käytössä...

Jaa viesti


Link to post
Jaa muulla sivustolla

Näkölähestyminen  ;)

 

EHAM 041950Z 190016KT 4500 -SN BR OVC003 01/01 Q1015 18290160 TEMPO 2000

 

Näkölähestyminen???    Tiedän kyllä että sinä pystyisit mut mie oon ni surkia pailotti ettei kykene  :-[

 

Jaa viesti


Link to post
Jaa muulla sivustolla

EHAM 041950Z 190016KT 4500 -SN BR OVC003 01/01 Q1015 18290160 TEMPO 2000

 

Näkölähestyminen???    Tiedän kyllä että sinä pystyisit mut mie oon ni surkia pailotti ettei kykene  :-[

 

 

Lennä vaan VMC-keleillä  ;)

Jaa viesti


Link to post
Jaa muulla sivustolla

AF2NL2K29v2_EHAM.BGL lisäys scenery kansioon auttoi...

 

Kiitokset Sami ja Anssi, jotka kävivät ongelman kimppuun kuin sika limppuun :thmbup:

 

Sorry Anssi et katosin mut, Elisa_internet_operaattori päätti että nyt alkoi tunnin tauko :-) >:(

Jaa viesti


Link to post
Jaa muulla sivustolla

Mulla on muuten sama ongelma myös ESSA 19L/01R ja freeware-scenery käytössä...

Tuosta ilmoitetaan ihan kys. paketin readmessa, en ole ainakaan minä mitään korjaustiedostoa löytänyt. Jos joku tietää mahdollisesta sellaisesta jotakin, niin kertokoot ihmeessä.

Jaa viesti


Link to post
Jaa muulla sivustolla

Luo uusi käyttäjätunnus tai kirjaudu sisään

Sinun täytyy olla jäsen osallistuaksesi keskusteluun

Luo käyttäjätili

Rekisteröi uusi käyttäjätili helposti ja nopeasti!


Luo uusi käyttäjätili

Kirjaudu sisään

Sinulla on jo käyttäjätili?


Kirjaudu sisään